createdAt,value
2023-10-28T00:00:47.655Z,23.57
2023-10-28T00:03:14.167Z,23.54
2023-10-28T00:05:40.642Z,23.51
2023-10-28T00:08:07.078Z,23.47
2023-10-28T00:10:34.267Z,23.44
2023-10-28T00:13:00.780Z,23.45
2023-10-28T00:15:27.182Z,23.43
2023-10-28T00:17:53.585Z,23.40
2023-10-28T00:20:20.125Z,23.39
2023-10-28T00:22:46.945Z,23.36
2023-10-28T00:25:16.652Z,23.36
2023-10-28T00:27:43.318Z,23.33
2023-10-28T00:30:10.790Z,23.30
2023-10-28T00:32:37.784Z,23.24
2023-10-28T00:35:05.322Z,23.25
2023-10-28T00:37:31.734Z,23.23
2023-10-28T00:39:58.591Z,23.20
2023-10-28T00:42:25.507Z,23.17
2023-10-28T00:44:51.904Z,23.16
2023-10-28T00:47:18.647Z,23.11
2023-10-28T00:49:46.121Z,23.10
2023-10-28T00:52:12.696Z,23.10
2023-10-28T00:54:39.066Z,23.08
2023-10-28T00:57:05.415Z,23.06
2023-10-28T00:59:31.934Z,23.07
2023-10-28T01:01:59.659Z,23.05
2023-10-28T01:04:26.963Z,23.01
2023-10-28T01:06:53.471Z,23.00
2023-10-28T01:09:20.151Z,23.00
2023-10-28T01:11:48.332Z,22.97
2023-10-28T01:14:14.782Z,22.97
2023-10-28T01:16:41.918Z,22.96
2023-10-28T01:19:10.489Z,22.92
2023-10-28T01:21:36.850Z,22.91
2023-10-28T01:24:03.259Z,22.92
2023-10-28T01:26:29.777Z,22.88
2023-10-28T01:28:56.206Z,22.87
2023-10-28T01:31:23.061Z,22.85
2023-10-28T01:33:49.562Z,22.85
2023-10-28T01:36:16.757Z,22.79
2023-10-28T01:38:44.109Z,22.78
2023-10-28T01:41:14.419Z,22.75
2023-10-28T01:43:47.200Z,22.71
2023-10-28T01:46:13.733Z,22.70
2023-10-28T01:48:40.276Z,22.68
2023-10-28T01:51:06.692Z,22.65
2023-10-28T01:53:33.305Z,22.64
2023-10-28T01:55:59.700Z,22.63
2023-10-28T01:58:26.202Z,22.61
2023-10-28T02:00:52.582Z,22.60
2023-10-28T02:03:19.019Z,22.60
2023-10-28T02:05:45.484Z,22.59
2023-10-28T02:08:11.871Z,22.58
2023-10-28T02:10:38.296Z,22.58
2023-10-28T02:13:06.009Z,22.56
2023-10-28T02:15:32.409Z,22.55
2023-10-28T02:17:58.819Z,22.55
2023-10-28T02:20:25.257Z,22.53
2023-10-28T02:22:51.832Z,22.52
2023-10-28T02:25:18.276Z,22.49
2023-10-28T02:27:46.031Z,22.50
2023-10-28T02:30:13.357Z,22.50
2023-10-28T02:32:39.929Z,22.49
2023-10-28T02:35:06.690Z,22.47
2023-10-28T02:37:33.062Z,22.45
2023-10-28T02:39:59.413Z,22.45
2023-10-28T02:42:26.009Z,22.44
2023-10-28T02:44:52.385Z,22.41
2023-10-28T02:47:18.825Z,22.41
2023-10-28T02:49:45.536Z,22.39
2023-10-28T02:52:12.061Z,22.40
2023-10-28T02:54:38.845Z,22.38
2023-10-28T02:57:05.253Z,22.36
2023-10-28T02:59:31.607Z,22.32
2023-10-28T03:01:58.688Z,22.30
2023-10-28T03:04:25.133Z,22.28
2023-10-28T03:06:52.504Z,22.27
2023-10-28T03:09:19.209Z,22.26
2023-10-28T03:11:46.730Z,22.24
2023-10-28T03:14:13.289Z,22.23
2023-10-28T03:16:40.305Z,22.22
2023-10-28T03:19:07.133Z,22.19
2023-10-28T03:21:33.600Z,22.18
2023-10-28T03:24:00.154Z,22.17
2023-10-28T03:26:26.600Z,22.15
2023-10-28T03:28:53.023Z,22.13
2023-10-28T03:31:19.474Z,22.14
2023-10-28T03:33:47.416Z,22.13
2023-10-28T03:36:13.787Z,22.12
2023-10-28T03:38:40.233Z,22.13
2023-10-28T03:41:07.656Z,22.11
2023-10-28T03:43:34.089Z,22.12
2023-10-28T03:46:00.643Z,22.11
2023-10-28T03:48:27.083Z,22.09
2023-10-28T03:50:59.924Z,22.08
2023-10-28T03:53:26.291Z,22.08
2023-10-28T03:55:52.681Z,22.06
2023-10-28T03:58:19.109Z,22.06
2023-10-28T04:00:45.484Z,22.03
2023-10-28T04:03:12.291Z,22.00
2023-10-28T04:05:39.356Z,21.99
2023-10-28T04:08:06.438Z,21.98
2023-10-28T04:10:32.840Z,21.97
2023-10-28T04:12:59.542Z,21.94
2023-10-28T04:15:26.365Z,21.90
2023-10-28T04:17:52.800Z,21.93
2023-10-28T04:20:19.313Z,21.90
2023-10-28T04:22:45.780Z,21.90
2023-10-28T04:25:12.157Z,21.90
2023-10-28T04:27:38.526Z,21.88
2023-10-28T04:30:09.324Z,21.87
2023-10-28T04:32:35.833Z,21.86
2023-10-28T04:35:08.646Z,21.85
2023-10-28T04:37:46.354Z,21.86
2023-10-28T04:40:13.129Z,21.85
2023-10-28T04:42:39.493Z,21.86
2023-10-28T04:45:07.362Z,21.84
2023-10-28T04:47:33.987Z,21.82
2023-10-28T04:50:00.408Z,21.82
2023-10-28T04:52:26.832Z,21.77
2023-10-28T04:54:53.462Z,21.81
2023-10-28T04:57:19.917Z,21.81
2023-10-28T04:59:46.394Z,21.80
2023-10-28T05:02:12.948Z,21.79
2023-10-28T05:04:39.344Z,21.81
2023-10-28T05:07:05.762Z,21.85
2023-10-28T05:09:32.121Z,21.86
2023-10-28T05:11:58.968Z,21.86
2023-10-28T05:14:25.996Z,21.86
2023-10-28T05:16:54.000Z,21.85
2023-10-28T05:19:23.679Z,21.84
2023-10-28T05:21:50.268Z,21.82
2023-10-28T05:24:16.733Z,21.81
2023-10-28T05:26:44.734Z,21.82
2023-10-28T05:29:11.127Z,21.80
2023-10-28T05:31:37.565Z,21.82
2023-10-28T05:34:04.078Z,21.82
2023-10-28T05:36:30.449Z,21.80
2023-10-28T05:38:57.240Z,21.79
2023-10-28T05:41:23.936Z,21.78
2023-10-28T05:43:50.440Z,21.77
2023-10-28T05:46:18.079Z,21.71
2023-10-28T05:48:44.516Z,21.74
2023-10-28T05:51:10.987Z,21.71
2023-10-28T05:53:37.354Z,21.72
2023-10-28T05:56:04.206Z,21.69
2023-10-28T05:58:30.680Z,21.68
2023-10-28T06:01:00.222Z,21.69
2023-10-28T06:03:27.550Z,21.69
2023-10-28T06:05:53.927Z,21.72
2023-10-28T06:08:20.387Z,21.71
2023-10-28T06:10:46.855Z,21.72
2023-10-28T06:13:13.338Z,21.74
2023-10-28T06:15:39.806Z,21.73
2023-10-28T06:18:06.800Z,21.74
2023-10-28T06:20:33.251Z,21.73
2023-10-28T06:22:59.761Z,21.74
2023-10-28T06:25:26.509Z,21.75
2023-10-28T06:27:52.887Z,21.77
2023-10-28T06:30:19.312Z,21.87
2023-10-28T06:32:45.792Z,22.04
2023-10-28T06:35:14.914Z,22.12
2023-10-28T06:37:41.576Z,22.19
2023-10-28T06:40:10.773Z,22.25
2023-10-28T06:42:38.365Z,22.20
2023-10-28T06:45:07.047Z,22.25
2023-10-28T06:47:34.681Z,22.20
2023-10-28T06:50:01.559Z,22.19
2023-10-28T06:52:28.133Z,22.13
2023-10-28T06:54:54.516Z,22.10
2023-10-28T06:57:20.872Z,22.10
2023-10-28T06:59:47.452Z,22.11
2023-10-28T07:02:14.098Z,22.13
2023-10-28T07:04:40.776Z,22.13
2023-10-28T07:07:07.453Z,22.17
2023-10-28T07:09:33.829Z,22.30
2023-10-28T07:12:00.225Z,22.36
2023-10-28T07:14:26.635Z,22.47
2023-10-28T07:16:53.113Z,22.42
2023-10-28T07:19:19.579Z,22.39
2023-10-28T07:21:46.014Z,22.38
2023-10-28T07:24:12.730Z,22.30
2023-10-28T07:26:39.929Z,22.38
2023-10-28T07:29:09.099Z,22.34
2023-10-28T07:31:39.396Z,22.30
2023-10-28T07:34:06.642Z,22.23
2023-10-28T07:36:33.777Z,22.24
2023-10-28T07:39:02.263Z,22.25
2023-10-28T07:41:31.460Z,22.27
2023-10-28T07:43:58.212Z,22.26
2023-10-28T07:46:24.980Z,22.24
2023-10-28T07:48:52.228Z,22.30
2023-10-28T07:51:18.679Z,22.34
2023-10-28T07:53:47.663Z,21.80
2023-10-28T07:56:14.142Z,21.50
2023-10-28T07:58:40.850Z,21.94
2023-10-28T08:01:14.548Z,22.11
2023-10-28T08:03:41.156Z,22.17
2023-10-28T08:06:15.001Z,22.19
2023-10-28T08:08:47.770Z,22.21
2023-10-28T08:11:14.840Z,22.19
2023-10-28T08:13:41.280Z,22.24
2023-10-28T08:16:13.592Z,22.32
2023-10-28T08:18:42.045Z,22.51
2023-10-28T08:21:08.537Z,22.56
2023-10-28T08:23:34.927Z,22.58
2023-10-28T08:26:01.367Z,22.53
2023-10-28T08:28:27.747Z,22.53
2023-10-28T08:30:54.303Z,22.47
2023-10-28T08:33:23.329Z,22.48
2023-10-28T08:35:49.703Z,22.40
2023-10-28T08:38:18.724Z,22.37
2023-10-28T08:40:45.612Z,22.32
2023-10-28T08:43:11.980Z,22.32
2023-10-28T08:45:38.592Z,22.35
2023-10-28T08:48:05.171Z,22.37
2023-10-28T08:50:31.589Z,22.39
2023-10-28T08:52:58.151Z,22.37
2023-10-28T08:55:25.209Z,22.33
2023-10-28T08:57:52.469Z,22.31
2023-10-28T09:00:23.597Z,22.28
2023-10-28T09:02:52.871Z,22.26
2023-10-28T09:05:21.252Z,22.22
2023-10-28T09:07:47.739Z,22.24
2023-10-28T09:10:14.512Z,22.18
2023-10-28T09:12:40.917Z,22.16
2023-10-28T09:15:09.813Z,22.14
2023-10-28T09:17:36.984Z,22.14
2023-10-28T09:20:10.554Z,22.11
2023-10-28T09:22:37.967Z,22.16
2023-10-28T09:25:04.427Z,22.22
2023-10-28T09:27:30.818Z,22.25
2023-10-28T09:30:04.965Z,22.16
2023-10-28T09:32:31.979Z,22.15
2023-10-28T09:34:58.394Z,22.17
2023-10-28T09:37:24.790Z,22.10
2023-10-28T09:39:51.628Z,22.08
2023-10-28T09:42:18.044Z,22.04
2023-10-28T09:44:45.418Z,22.03
2023-10-28T09:47:11.857Z,22.01
2023-10-28T09:49:38.256Z,21.99
2023-10-28T09:52:07.988Z,21.98
2023-10-28T09:54:37.554Z,21.97
2023-10-28T09:57:04.251Z,21.98
2023-10-28T09:59:33.111Z,22.05
2023-10-28T10:02:07.661Z,22.05
2023-10-28T10:04:37.686Z,22.07
2023-10-28T10:07:04.056Z,22.10
2023-10-28T10:09:40.238Z,22.04
2023-10-28T10:12:06.936Z,22.08
2023-10-28T10:14:33.327Z,22.03
2023-10-28T10:17:18.666Z,22.02
2023-10-28T10:19:45.273Z,22.08
2023-10-28T10:22:12.220Z,22.24
2023-10-28T10:24:48.708Z,22.41
2023-10-28T10:27:15.244Z,22.54
2023-10-28T10:29:41.897Z,22.62
2023-10-28T10:32:18.089Z,22.66
2023-10-28T10:34:47.560Z,22.64
2023-10-28T10:37:23.679Z,22.64
2023-10-28T10:39:50.055Z,22.68
2023-10-28T10:42:16.434Z,22.68
2023-10-28T10:44:42.902Z,22.68
2023-10-28T10:47:10.152Z,22.66
2023-10-28T10:49:37.278Z,22.65
2023-10-28T10:52:04.002Z,22.64
2023-10-28T10:54:30.682Z,22.65
2023-10-28T10:56:57.272Z,22.66
2023-10-28T10:59:23.692Z,22.67
2023-10-28T11:01:50.140Z,22.65
2023-10-28T11:04:16.820Z,22.65
2023-10-28T11:06:43.173Z,22.60
2023-10-28T11:09:10.141Z,22.55
2023-10-28T11:11:39.464Z,22.51
2023-10-28T11:14:06.369Z,22.48
2023-10-28T11:16:32.972Z,22.49
2023-10-28T11:19:00.512Z,22.47
2023-10-28T11:21:27.135Z,22.45
2023-10-28T11:23:55.256Z,22.44
2023-10-28T11:26:21.789Z,22.53
2023-10-28T11:28:48.239Z,22.64
2023-10-28T11:31:14.742Z,22.65
2023-10-28T11:33:41.398Z,22.68
2023-10-28T11:36:12.241Z,22.69
2023-10-28T11:38:41.024Z,22.68
2023-10-28T11:41:08.205Z,22.69
2023-10-28T11:43:35.059Z,22.69
2023-10-28T11:46:01.473Z,22.74
2023-10-28T11:48:28.037Z,22.66
2023-10-28T11:50:57.250Z,22.64
2023-10-28T11:53:24.324Z,22.60
2023-10-28T11:55:50.803Z,22.59
2023-10-28T11:58:17.233Z,22.56
2023-10-28T12:00:43.688Z,22.53
2023-10-28T12:03:10.093Z,22.47
2023-10-28T12:05:36.581Z,22.43
2023-10-28T12:08:02.990Z,22.45
2023-10-28T12:10:29.512Z,22.42
2023-10-28T12:12:55.878Z,22.44
2023-10-28T12:15:22.248Z,22.37
2023-10-28T12:17:48.962Z,22.35
2023-10-28T12:20:18.388Z,22.30
2023-10-28T12:22:44.870Z,22.23
2023-10-28T12:25:12.609Z,22.18
2023-10-28T12:27:39.048Z,22.19
2023-10-28T12:30:09.397Z,22.24
2023-10-28T12:32:35.832Z,22.17
2023-10-28T12:35:02.281Z,22.14
2023-10-28T12:37:28.662Z,22.14
2023-10-28T12:39:55.012Z,22.14
2023-10-28T12:42:21.501Z,22.17
2023-10-28T12:44:47.865Z,22.24
2023-10-28T12:47:14.321Z,22.30
2023-10-28T12:49:40.704Z,22.35
2023-10-28T12:52:07.062Z,22.39
2023-10-28T12:54:33.681Z,22.40
2023-10-28T12:57:00.207Z,22.41
2023-10-28T12:59:28.805Z,22.42
2023-10-28T13:01:55.787Z,22.41
2023-10-28T13:04:24.719Z,22.38
2023-10-28T13:06:51.307Z,22.38
2023-10-28T13:09:17.688Z,22.38
2023-10-28T13:11:44.144Z,22.37
2023-10-28T13:14:12.604Z,22.35
2023-10-28T13:16:39.067Z,22.33
2023-10-28T13:19:05.447Z,22.33
2023-10-28T13:21:32.155Z,22.33
2023-10-28T13:23:59.164Z,22.31
2023-10-28T13:26:25.542Z,22.30
2023-10-28T13:28:51.972Z,22.25
2023-10-28T13:31:18.390Z,22.26
2023-10-28T13:33:44.788Z,22.24
2023-10-28T13:36:12.210Z,22.26
2023-10-28T13:38:39.070Z,22.23
2023-10-28T13:41:06.334Z,22.21
2023-10-28T13:43:34.144Z,22.22
2023-10-28T13:46:06.863Z,22.21
2023-10-28T13:48:33.312Z,22.19
2023-10-28T13:50:59.928Z,22.18
2023-10-28T13:53:26.485Z,22.15
2023-10-28T13:55:59.660Z,22.11
2023-10-28T13:58:26.089Z,22.14
2023-10-28T14:00:53.448Z,22.13
2023-10-28T14:03:21.844Z,22.13
2023-10-28T14:05:48.399Z,22.16
2023-10-28T14:08:16.333Z,22.17
2023-10-28T14:10:47.133Z,22.18
2023-10-28T14:13:13.625Z,22.20
2023-10-28T14:15:43.429Z,22.22
2023-10-28T14:18:10.070Z,22.23
2023-10-28T14:20:36.826Z,22.22
2023-10-28T14:23:03.291Z,22.24
2023-10-28T14:25:29.665Z,22.22
2023-10-28T14:27:56.029Z,22.26
2023-10-28T14:30:23.353Z,22.18
2023-10-28T14:32:50.426Z,22.18
2023-10-28T14:35:17.199Z,22.13
2023-10-28T14:37:44.034Z,22.12
2023-10-28T14:40:11.614Z,22.09
2023-10-28T14:42:40.915Z,22.08
2023-10-28T14:45:12.388Z,22.06
2023-10-28T14:47:39.788Z,22.04
2023-10-28T14:50:09.093Z,22.05
2023-10-28T14:52:36.077Z,22.03
2023-10-28T14:55:02.908Z,22.03
2023-10-28T14:57:31.538Z,22.05
2023-10-28T14:59:58.869Z,22.06
2023-10-28T15:02:25.347Z,22.07
2023-10-28T15:04:52.011Z,22.08
2023-10-28T15:07:18.791Z,22.13
2023-10-28T15:09:48.118Z,22.13
2023-10-28T15:12:14.849Z,22.16
2023-10-28T15:14:41.289Z,22.18
2023-10-28T15:17:07.822Z,22.18
2023-10-28T15:19:34.242Z,22.19
2023-10-28T15:22:00.631Z,22.20
2023-10-28T15:24:26.993Z,22.23
2023-10-28T15:26:53.355Z,22.23
2023-10-28T15:29:19.855Z,22.24
2023-10-28T15:31:46.306Z,22.24
2023-10-28T15:34:13.907Z,22.20
2023-10-28T15:36:40.374Z,22.20
2023-10-28T15:39:06.814Z,22.17
2023-10-28T15:41:33.203Z,22.16
2023-10-28T15:44:01.866Z,22.16
2023-10-28T15:46:29.275Z,22.14
2023-10-28T15:48:55.618Z,22.12
2023-10-28T15:51:24.226Z,22.10
2023-10-28T15:53:50.587Z,22.08
2023-10-28T15:56:19.952Z,22.08
2023-10-28T15:58:46.547Z,22.07
2023-10-28T16:01:13.181Z,22.07
2023-10-28T16:03:39.721Z,22.06
2023-10-28T16:06:12.317Z,22.07
2023-10-28T16:08:39.031Z,22.06
2023-10-28T16:11:05.599Z,22.05
2023-10-28T16:13:32.813Z,22.03
2023-10-28T16:15:59.230Z,22.00
2023-10-28T16:18:26.325Z,22.02
2023-10-28T16:20:53.307Z,22.02
2023-10-28T16:23:19.724Z,22.00
2023-10-28T16:25:46.220Z,21.99
2023-10-28T16:28:12.658Z,22.00
2023-10-28T16:30:39.443Z,21.98
2023-10-28T16:33:05.977Z,21.97
2023-10-28T16:35:33.080Z,21.96
2023-10-28T16:37:59.517Z,21.93
2023-10-28T16:40:25.962Z,21.94
2023-10-28T16:42:52.400Z,21.91
2023-10-28T16:45:18.771Z,21.92
2023-10-28T16:47:45.233Z,21.90
2023-10-28T16:50:12.115Z,21.90
2023-10-28T16:52:38.813Z,21.90
2023-10-28T16:55:05.581Z,21.90
2023-10-28T16:57:33.186Z,21.88
2023-10-28T16:59:59.571Z,21.86
2023-10-28T17:02:26.414Z,21.85
2023-10-28T17:04:53.207Z,21.85
2023-10-28T17:07:19.635Z,21.87
2023-10-28T17:09:47.182Z,21.88
2023-10-28T17:12:14.197Z,21.89
2023-10-28T17:14:40.651Z,21.90
2023-10-28T17:17:07.157Z,21.91
2023-10-28T17:19:33.614Z,21.94
2023-10-28T17:22:00.276Z,21.94
2023-10-28T17:24:26.679Z,21.97
2023-10-28T17:26:54.394Z,22.00
2023-10-28T17:29:24.541Z,22.03
2023-10-28T17:31:51.261Z,22.02
2023-10-28T17:34:17.645Z,22.03
2023-10-28T17:36:44.081Z,22.03
2023-10-28T17:39:11.683Z,22.02
2023-10-28T17:41:38.073Z,22.02
2023-10-28T17:44:05.540Z,22.00
2023-10-28T17:46:31.920Z,22.01
2023-10-28T17:48:59.250Z,21.97
2023-10-28T17:51:30.040Z,22.00
2023-10-28T17:53:56.678Z,22.00
2023-10-28T17:56:23.438Z,21.99
2023-10-28T17:58:49.829Z,21.99
2023-10-28T18:01:16.406Z,21.98
2023-10-28T18:03:42.953Z,22.00
2023-10-28T18:06:09.701Z,22.02
2023-10-28T18:08:37.944Z,22.04
2023-10-28T18:11:05.523Z,22.02
2023-10-28T18:13:32.000Z,22.04
2023-10-28T18:15:59.054Z,22.05
2023-10-28T18:18:27.638Z,22.03
2023-10-28T18:20:54.582Z,22.01
2023-10-28T18:23:24.428Z,22.01
2023-10-28T18:25:51.544Z,21.98
2023-10-28T18:28:17.928Z,22.01
2023-10-28T18:30:44.288Z,21.98
2023-10-28T18:33:12.251Z,21.97
2023-10-28T18:35:39.975Z,21.94
2023-10-28T18:38:07.913Z,21.93
2023-10-28T18:40:34.727Z,21.92
2023-10-28T18:43:01.104Z,21.93
2023-10-28T18:45:27.481Z,21.93
2023-10-28T18:47:53.920Z,21.91
2023-10-28T18:50:22.868Z,21.91
2023-10-28T18:52:49.625Z,21.93
2023-10-28T18:55:16.032Z,21.93
2023-10-28T18:57:42.916Z,21.95
2023-10-28T19:00:12.270Z,21.89
2023-10-28T19:02:39.290Z,21.95
2023-10-28T19:05:06.225Z,21.94
2023-10-28T19:07:32.765Z,21.93
2023-10-28T19:09:59.693Z,21.90
2023-10-28T19:12:26.435Z,21.87
2023-10-28T19:14:52.812Z,21.87
2023-10-28T19:17:19.196Z,21.86
2023-10-28T19:19:47.136Z,21.84
2023-10-28T19:22:13.752Z,21.85
2023-10-28T19:24:40.288Z,21.86
2023-10-28T19:27:06.699Z,21.85
2023-10-28T19:29:33.127Z,21.88
2023-10-28T19:31:59.647Z,21.90
2023-10-28T19:34:26.070Z,21.90
2023-10-28T19:36:52.739Z,21.91
2023-10-28T19:39:22.757Z,21.93
2023-10-28T19:41:53.382Z,21.98
2023-10-28T19:44:20.132Z,22.00
2023-10-28T19:46:48.569Z,22.00
2023-10-28T19:49:16.166Z,22.02
2023-10-28T19:51:42.630Z,22.01
2023-10-28T19:54:08.992Z,22.02
2023-10-28T19:56:35.788Z,22.03
2023-10-28T19:59:04.634Z,22.00
2023-10-28T20:01:31.044Z,21.98
2023-10-28T20:03:57.760Z,21.99
2023-10-28T20:06:24.363Z,21.92
2023-10-28T20:08:50.883Z,21.95
2023-10-28T20:11:17.366Z,21.97
2023-10-28T20:13:47.582Z,21.95
2023-10-28T20:16:14.722Z,21.93
2023-10-28T20:18:41.147Z,21.90
2023-10-28T20:21:07.782Z,21.87
2023-10-28T20:23:34.200Z,21.88
2023-10-28T20:26:01.298Z,21.86
2023-10-28T20:28:27.652Z,21.82
2023-10-28T20:30:54.055Z,21.79
2023-10-28T20:33:21.309Z,21.79
2023-10-28T20:35:47.908Z,21.79
2023-10-28T20:38:14.342Z,21.74
2023-10-28T20:40:42.269Z,21.72
2023-10-28T20:43:09.411Z,21.68
2023-10-28T20:45:35.779Z,21.67
2023-10-28T20:48:02.407Z,21.66
2023-10-28T20:50:29.856Z,21.60
2023-10-28T20:52:56.273Z,21.62
2023-10-28T20:55:22.722Z,21.60
2023-10-28T20:57:49.423Z,21.60
2023-10-28T21:00:15.954Z,21.58
2023-10-28T21:02:42.560Z,21.58
2023-10-28T21:05:11.656Z,21.55
2023-10-28T21:07:38.481Z,21.54
2023-10-28T21:10:06.164Z,21.54
2023-10-28T21:12:32.837Z,21.53
2023-10-28T21:14:59.881Z,21.53
2023-10-28T21:17:26.421Z,21.52
2023-10-28T21:19:52.904Z,21.52
2023-10-28T21:22:19.271Z,21.51
2023-10-28T21:24:48.748Z,21.50
2023-10-28T21:27:15.433Z,21.49
2023-10-28T21:29:41.886Z,21.49
2023-10-28T21:32:09.632Z,21.48
2023-10-28T21:34:37.550Z,21.48
2023-10-28T21:37:03.956Z,21.45
2023-10-28T21:39:30.938Z,21.41
2023-10-28T21:41:57.338Z,21.43
2023-10-28T21:44:23.800Z,21.43
2023-10-28T21:46:50.241Z,21.41
2023-10-28T21:49:16.690Z,21.35
2023-10-28T21:51:43.240Z,21.32
2023-10-28T21:54:09.757Z,21.28
2023-10-28T21:56:36.197Z,21.25
2023-10-28T21:59:02.600Z,21.24
2023-10-28T22:01:29.028Z,21.25
2023-10-28T22:03:55.568Z,21.28
2023-10-28T22:06:22.260Z,21.30
2023-10-28T22:08:48.758Z,21.29
2023-10-28T22:11:15.428Z,21.30
2023-10-28T22:13:41.827Z,21.30
2023-10-28T22:16:08.867Z,21.29
2023-10-28T22:18:35.346Z,21.28
2023-10-28T22:21:01.718Z,21.28
2023-10-28T22:23:28.927Z,21.28
2023-10-28T22:25:55.370Z,21.27
2023-10-28T22:28:21.734Z,21.27
2023-10-28T22:30:48.498Z,21.24
2023-10-28T22:33:15.380Z,21.25
2023-10-28T22:35:42.064Z,21.24
2023-10-28T22:38:08.586Z,21.25
2023-10-28T22:40:34.965Z,21.23
2023-10-28T22:43:02.935Z,21.22
2023-10-28T22:45:30.040Z,21.21
2023-10-28T22:47:56.608Z,21.19
2023-10-28T22:50:23.263Z,21.19
2023-10-28T22:52:49.925Z,21.19
2023-10-28T22:55:17.555Z,21.16
2023-10-28T22:57:44.165Z,21.15
2023-10-28T23:00:10.811Z,21.14
2023-10-28T23:02:37.649Z,21.12
2023-10-28T23:05:04.858Z,21.12
2023-10-28T23:07:31.521Z,21.11
2023-10-28T23:09:57.890Z,21.10
2023-10-28T23:12:24.235Z,21.09
2023-10-28T23:14:50.688Z,21.10
2023-10-28T23:17:17.155Z,21.09
2023-10-28T23:19:43.565Z,21.08
2023-10-28T23:22:09.973Z,21.06
2023-10-28T23:24:36.438Z,21.06
2023-10-28T23:27:03.266Z,21.05
2023-10-28T23:29:29.831Z,21.05
2023-10-28T23:31:56.214Z,21.05
2023-10-28T23:34:22.574Z,21.04
2023-10-28T23:36:48.952Z,21.04
2023-10-28T23:39:15.310Z,21.04
2023-10-28T23:41:41.779Z,21.04
2023-10-28T23:44:08.192Z,21.04
2023-10-28T23:46:34.547Z,21.02
2023-10-28T23:49:00.937Z,21.01
2023-10-28T23:51:28.061Z,21.01
2023-10-28T23:53:54.613Z,21.01
2023-10-28T23:56:21.169Z,20.98
2023-10-28T23:58:47.570Z,20.99
